sensor_id;sensor_type;location;lat;lon;timestamp;temperature;humidity
15409;DHT22;7803;48.130;13.788;2022-08-01T00:02:09;24.50;97.20
15409;DHT22;7803;48.130;13.788;2022-08-01T00:05:12;24.50;97.40
15409;DHT22;7803;48.130;13.788;2022-08-01T00:08:14;24.50;97.60
15409;DHT22;7803;48.130;13.788;2022-08-01T00:11:17;24.50;97.70
15409;DHT22;7803;48.130;13.788;2022-08-01T00:14:19;24.50;97.80
15409;DHT22;7803;48.130;13.788;2022-08-01T00:17:21;24.50;97.80
15409;DHT22;7803;48.130;13.788;2022-08-01T00:20:24;24.60;97.80
15409;DHT22;7803;48.130;13.788;2022-08-01T00:23:26;24.50;97.70
15409;DHT22;7803;48.130;13.788;2022-08-01T00:26:28;24.50;97.60
15409;DHT22;7803;48.130;13.788;2022-08-01T00:29:30;24.50;97.60
15409;DHT22;7803;48.130;13.788;2022-08-01T00:32:32;24.50;97.40
15409;DHT22;7803;48.130;13.788;2022-08-01T00:35:36;24.50;97.20
15409;DHT22;7803;48.130;13.788;2022-08-01T00:38:38;24.40;97.40
15409;DHT22;7803;48.130;13.788;2022-08-01T00:41:40;24.50;97.60
15409;DHT22;7803;48.130;13.788;2022-08-01T00:44:42;24.40;97.70
15409;DHT22;7803;48.130;13.788;2022-08-01T00:47:44;24.40;97.70
15409;DHT22;7803;48.130;13.788;2022-08-01T00:50:47;24.40;97.70
15409;DHT22;7803;48.130;13.788;2022-08-01T00:53:50;24.40;97.70
15409;DHT22;7803;48.130;13.788;2022-08-01T00:56:53;24.40;97.80
15409;DHT22;7803;48.130;13.788;2022-08-01T00:59:56;24.50;97.90
15409;DHT22;7803;48.130;13.788;2022-08-01T01:02:58;24.40;97.90
15409;DHT22;7803;48.130;13.788;2022-08-01T01:06:16;24.40;98.00
15409;DHT22;7803;48.130;13.788;2022-08-01T01:09:33;24.40;98.20
15409;DHT22;7803;48.130;13.788;2022-08-01T01:12:38;24.50;98.50
15409;DHT22;7803;48.130;13.788;2022-08-01T01:15:49;24.40;98.90
15409;DHT22;7803;48.130;13.788;2022-08-01T01:18:54;24.50;98.70
15409;DHT22;7803;48.130;13.788;2022-08-01T01:22:14;24.50;98.80
15409;DHT22;7803;48.130;13.788;2022-08-01T01:25:32;24.40;99.20
15409;DHT22;7803;48.130;13.788;2022-08-01T01:29:04;24.50;99.30
15409;DHT22;7803;48.130;13.788;2022-08-01T01:32:14;24.50;99.80
15409;DHT22;7803;48.130;13.788;2022-08-01T01:35:22;24.50;99.90
15409;DHT22;7803;48.130;13.788;2022-08-01T01:38:28;24.40;99.90
15409;DHT22;7803;48.130;13.788;2022-08-01T01:41:31;24.40;99.90
15409;DHT22;7803;48.130;13.788;2022-08-01T01:44:36;24.40;99.90
15409;DHT22;7803;48.130;13.788;2022-08-01T01:47:39;24.40;99.90
15409;DHT22;7803;48.130;13.788;2022-08-01T01:50:42;24.40;99.90
15409;DHT22;7803;48.130;13.788;2022-08-01T01:53:45;24.40;99.90
15409;DHT22;7803;48.130;13.788;2022-08-01T01:56:48;24.40;99.90
15409;DHT22;7803;48.130;13.788;2022-08-01T01:59:53;24.40;99.90
15409;DHT22;7803;48.130;13.788;2022-08-01T02:02:57;24.40;99.90
15409;DHT22;7803;48.130;13.788;2022-08-01T02:06:01;24.50;99.90
15409;DHT22;7803;48.130;13.788;2022-08-01T02:09:04;24.50;99.90
15409;DHT22;7803;48.130;13.788;2022-08-01T02:12:10;24.40;99.90
15409;DHT22;7803;48.130;13.788;2022-08-01T02:15:15;24.40;99.90
15409;DHT22;7803;48.130;13.788;2022-08-01T02:18:17;24.40;99.90
15409;DHT22;7803;48.130;13.788;2022-08-01T02:21:25;24.40;99.90
15409;DHT22;7803;48.130;13.788;2022-08-01T02:24:35;24.40;99.90
15409;DHT22;7803;48.130;13.788;2022-08-01T02:27:41;24.40;99.90
15409;DHT22;7803;48.130;13.788;2022-08-01T02:30:47;24.40;99.90
15409;DHT22;7803;48.130;13.788;2022-08-01T02:33:55;24.40;99.90
15409;DHT22;7803;48.130;13.788;2022-08-01T02:36:59;24.40;99.90
15409;DHT22;7803;48.130;13.788;2022-08-01T02:40:02;24.40;99.90
15409;DHT22;7803;48.130;13.788;2022-08-01T02:43:06;24.40;99.90
15409;DHT22;7803;48.130;13.788;2022-08-01T02:46:16;24.40;99.90
15409;DHT22;7803;48.130;13.788;2022-08-01T02:49:20;24.40;99.90
15409;DHT22;7803;48.130;13.788;2022-08-01T02:52:24;24.40;99.90
15409;DHT22;7803;48.130;13.788;2022-08-01T02:55:28;24.40;99.90
15409;DHT22;7803;48.130;13.788;2022-08-01T02:58:34;24.40;99.90
15409;DHT22;7803;48.130;13.788;2022-08-01T03:01:39;24.40;99.90
15409;DHT22;7803;48.130;13.788;2022-08-01T03:04:44;24.40;99.90
15409;DHT22;7803;48.130;13.788;2022-08-01T03:07:48;24.40;99.90
15409;DHT22;7803;48.130;13.788;2022-08-01T03:10:51;24.40;99.90
15409;DHT22;7803;48.130;13.788;2022-08-01T03:13:55;24.40;99.90
15409;DHT22;7803;48.130;13.788;2022-08-01T03:17:00;24.40;99.90
15409;DHT22;7803;48.130;13.788;2022-08-01T03:20:03;24.40;99.90
15409;DHT22;7803;48.130;13.788;2022-08-01T03:23:08;24.30;99.90
15409;DHT22;7803;48.130;13.788;2022-08-01T03:26:11;24.40;99.90
15409;DHT22;7803;48.130;13.788;2022-08-01T03:29:16;24.30;99.90
15409;DHT22;7803;48.130;13.788;2022-08-01T03:32:21;24.40;99.90
15409;DHT22;7803;48.130;13.788;2022-08-01T03:35:27;24.40;99.90
15409;DHT22;7803;48.130;13.788;2022-08-01T03:38:34;24.40;99.90
15409;DHT22;7803;48.130;13.788;2022-08-01T03:41:41;24.40;99.90
15409;DHT22;7803;48.130;13.788;2022-08-01T03:44:58;24.40;99.90
15409;DHT22;7803;48.130;13.788;2022-08-01T03:48:05;24.40;99.90
15409;DHT22;7803;48.130;13.788;2022-08-01T03:51:10;24.30;99.90
15409;DHT22;7803;48.130;13.788;2022-08-01T03:54:14;24.30;99.90
15409;DHT22;7803;48.130;13.788;2022-08-01T03:57:17;24.30;99.90
15409;DHT22;7803;48.130;13.788;2022-08-01T04:00:20;24.30;99.90
15409;DHT22;7803;48.130;13.788;2022-08-01T04:03:24;24.40;99.90
15409;DHT22;7803;48.130;13.788;2022-08-01T04:06:26;24.30;99.90
15409;DHT22;7803;48.130;13.788;2022-08-01T04:09:29;24.30;99.90
15409;DHT22;7803;48.130;13.788;2022-08-01T04:12:31;24.30;99.90
15409;DHT22;7803;48.130;13.788;2022-08-01T04:15:33;24.30;99.90
15409;DHT22;7803;48.130;13.788;2022-08-01T04:18:36;24.30;99.90
15409;DHT22;7803;48.130;13.788;2022-08-01T04:21:38;24.30;99.90
15409;DHT22;7803;48.130;13.788;2022-08-01T04:24:41;24.30;99.90
15409;DHT22;7803;48.130;13.788;2022-08-01T04:27:50;24.30;99.90
15409;DHT22;7803;48.130;13.788;2022-08-01T04:30:55;24.40;99.90
15409;DHT22;7803;48.130;13.788;2022-08-01T04:34:02;24.30;99.90
15409;DHT22;7803;48.130;13.788;2022-08-01T04:37:08;24.30;99.90
15409;DHT22;7803;48.130;13.788;2022-08-01T04:40:12;24.30;99.90
15409;DHT22;7803;48.130;13.788;2022-08-01T04:43:14;24.30;99.90
15409;DHT22;7803;48.130;13.788;2022-08-01T04:46:16;24.30;99.90
15409;DHT22;7803;48.130;13.788;2022-08-01T04:49:21;24.40;99.90
15409;DHT22;7803;48.130;13.788;2022-08-01T04:52:23;24.30;99.90
15409;DHT22;7803;48.130;13.788;2022-08-01T04:55:25;24.40;99.90
15409;DHT22;7803;48.130;13.788;2022-08-01T04:58:27;24.40;99.90
15409;DHT22;7803;48.130;13.788;2022-08-01T05:01:29;24.50;99.90
15409;DHT22;7803;48.130;13.788;2022-08-01T05:04:33;24.50;99.90
15409;DHT22;7803;48.130;13.788;2022-08-01T05:07:35;24.50;99.90
15409;DHT22;7803;48.130;13.788;2022-08-01T05:10:37;24.50;99.90
15409;DHT22;7803;48.130;13.788;2022-08-01T05:13:39;24.50;99.90
15409;DHT22;7803;48.130;13.788;2022-08-01T05:16:41;24.40;99.90
15409;DHT22;7803;48.130;13.788;2022-08-01T05:19:44;24.40;99.90
15409;DHT22;7803;48.130;13.788;2022-08-01T05:22:46;24.40;99.90
15409;DHT22;7803;48.130;13.788;2022-08-01T05:25:48;24.40;99.90
15409;DHT22;7803;48.130;13.788;2022-08-01T05:29:12;24.40;99.90
15409;DHT22;7803;48.130;13.788;2022-08-01T05:32:20;24.40;99.90
15409;DHT22;7803;48.130;13.788;2022-08-01T05:35:23;24.50;99.90
15409;DHT22;7803;48.130;13.788;2022-08-01T05:38:25;24.40;99.90
15409;DHT22;7803;48.130;13.788;2022-08-01T05:41:27;24.50;99.90
15409;DHT22;7803;48.130;13.788;2022-08-01T05:44:29;24.40;99.90
15409;DHT22;7803;48.130;13.788;2022-08-01T05:47:31;24.40;99.90
15409;DHT22;7803;48.130;13.788;2022-08-01T05:50:35;24.40;99.90
15409;DHT22;7803;48.130;13.788;2022-08-01T05:53:37;24.40;99.90
15409;DHT22;7803;48.130;13.788;2022-08-01T05:56:39;24.40;99.90
15409;DHT22;7803;48.130;13.788;2022-08-01T05:59:41;24.40;99.90
15409;DHT22;7803;48.130;13.788;2022-08-01T06:02:43;24.30;99.90
15409;DHT22;7803;48.130;13.788;2022-08-01T06:05:46;24.30;99.60
15409;DHT22;7803;48.130;13.788;2022-08-01T06:08:49;24.30;99.10
15409;DHT22;7803;48.130;13.788;2022-08-01T06:11:51;24.30;98.60
15409;DHT22;7803;48.130;13.788;2022-08-01T06:14:53;24.30;98.60
15409;DHT22;7803;48.130;13.788;2022-08-01T06:17:55;24.30;98.80
15409;DHT22;7803;48.130;13.788;2022-08-01T06:20:58;24.30;99.60
15409;DHT22;7803;48.130;13.788;2022-08-01T06:24:00;24.30;99.40
15409;DHT22;7803;48.130;13.788;2022-08-01T06:27:02;24.30;99.30
15409;DHT22;7803;48.130;13.788;2022-08-01T06:30:05;24.30;98.90
15409;DHT22;7803;48.130;13.788;2022-08-01T06:33:08;24.30;98.60
15409;DHT22;7803;48.130;13.788;2022-08-01T06:36:11;24.30;97.70
15409;DHT22;7803;48.130;13.788;2022-08-01T06:39:13;24.20;96.80
15409;DHT22;7803;48.130;13.788;2022-08-01T06:42:15;24.30;95.90
15409;DHT22;7803;48.130;13.788;2022-08-01T06:45:18;24.30;96.30
15409;DHT22;7803;48.130;13.788;2022-08-01T06:48:22;24.20;96.20
15409;DHT22;7803;48.130;13.788;2022-08-01T06:51:26;24.20;96.20
15409;DHT22;7803;48.130;13.788;2022-08-01T06:54:28;24.20;96.80
15409;DHT22;7803;48.130;13.788;2022-08-01T06:57:30;24.30;96.20
15409;DHT22;7803;48.130;13.788;2022-08-01T07:00:32;24.20;96.00
15409;DHT22;7803;48.130;13.788;2022-08-01T07:03:35;24.30;96.00
15409;DHT22;7803;48.130;13.788;2022-08-01T07:06:38;24.20;96.40
15409;DHT22;7803;48.130;13.788;2022-08-01T07:09:40;24.20;96.20
15409;DHT22;7803;48.130;13.788;2022-08-01T07:12:43;24.20;96.60
15409;DHT22;7803;48.130;13.788;2022-08-01T07:15:45;24.30;96.30
15409;DHT22;7803;48.130;13.788;2022-08-01T07:18:47;24.30;96.20
15409;DHT22;7803;48.130;13.788;2022-08-01T07:21:50;24.20;96.00
15409;DHT22;7803;48.130;13.788;2022-08-01T07:24:52;24.20;96.30
15409;DHT22;7803;48.130;13.788;2022-08-01T07:27:54;24.20;95.80
15409;DHT22;7803;48.130;13.788;2022-08-01T07:30:57;24.20;95.60
15409;DHT22;7803;48.130;13.788;2022-08-01T07:33:59;24.20;96.40
15409;DHT22;7803;48.130;13.788;2022-08-01T07:37:02;24.30;97.10
15409;DHT22;7803;48.130;13.788;2022-08-01T07:40:05;24.30;96.80
15409;DHT22;7803;48.130;13.788;2022-08-01T07:43:07;24.30;96.30
15409;DHT22;7803;48.130;13.788;2022-08-01T07:46:09;24.30;96.50
15409;DHT22;7803;48.130;13.788;2022-08-01T07:49:11;24.30;96.30
15409;DHT22;7803;48.130;13.788;2022-08-01T07:52:15;24.30;96.40
15409;DHT22;7803;48.130;13.788;2022-08-01T07:55:17;24.30;96.40
15409;DHT22;7803;48.130;13.788;2022-08-01T07:58:19;24.30;96.10
15409;DHT22;7803;48.130;13.788;2022-08-01T08:01:21;24.30;96.90
15409;DHT22;7803;48.130;13.788;2022-08-01T08:04:23;24.30;97.10
15409;DHT22;7803;48.130;13.788;2022-08-01T08:07:26;24.30;97.10
15409;DHT22;7803;48.130;13.788;2022-08-01T08:10:28;24.30;97.30
15409;DHT22;7803;48.130;13.788;2022-08-01T08:13:30;24.30;98.10
15409;DHT22;7803;48.130;13.788;2022-08-01T08:16:32;24.30;98.20
15409;DHT22;7803;48.130;13.788;2022-08-01T08:19:34;24.30;98.60
15409;DHT22;7803;48.130;13.788;2022-08-01T08:22:40;24.30;98.60
15409;DHT22;7803;48.130;13.788;2022-08-01T08:25:42;24.30;98.40
15409;DHT22;7803;48.130;13.788;2022-08-01T08:28:44;24.30;98.70
15409;DHT22;7803;48.130;13.788;2022-08-01T08:31:47;24.30;99.30
15409;DHT22;7803;48.130;13.788;2022-08-01T08:34:49;24.30;99.30
15409;DHT22;7803;48.130;13.788;2022-08-01T08:37:52;24.40;99.00
15409;DHT22;7803;48.130;13.788;2022-08-01T08:40:55;24.40;98.80
15409;DHT22;7803;48.130;13.788;2022-08-01T08:43:57;24.40;98.90
15409;DHT22;7803;48.130;13.788;2022-08-01T08:47:01;24.40;98.90
15409;DHT22;7803;48.130;13.788;2022-08-01T08:50:06;24.40;98.80
15409;DHT22;7803;48.130;13.788;2022-08-01T08:53:10;24.40;99.00
15409;DHT22;7803;48.130;13.788;2022-08-01T08:56:15;24.40;99.00
15409;DHT22;7803;48.130;13.788;2022-08-01T08:59:17;24.40;99.00
15409;DHT22;7803;48.130;13.788;2022-08-01T09:02:19;24.40;99.40
15409;DHT22;7803;48.130;13.788;2022-08-01T09:05:23;24.40;99.50
15409;DHT22;7803;48.130;13.788;2022-08-01T09:08:28;24.40;99.40
15409;DHT22;7803;48.130;13.788;2022-08-01T09:11:31;24.40;99.70
15409;DHT22;7803;48.130;13.788;2022-08-01T09:14:33;24.50;99.90
15409;DHT22;7803;48.130;13.788;2022-08-01T09:17:45;24.40;99.90
15409;DHT22;7803;48.130;13.788;2022-08-01T09:20:47;24.40;99.90
15409;DHT22;7803;48.130;13.788;2022-08-01T09:23:52;24.40;99.90
15409;DHT22;7803;48.130;13.788;2022-08-01T09:26:54;24.40;99.90
15409;DHT22;7803;48.130;13.788;2022-08-01T09:30:08;24.40;99.60
15409;DHT22;7803;48.130;13.788;2022-08-01T09:33:10;24.40;99.80
15409;DHT22;7803;48.130;13.788;2022-08-01T09:36:12;24.50;99.40
15409;DHT22;7803;48.130;13.788;2022-08-01T09:39:15;24.50;99.30
15409;DHT22;7803;48.130;13.788;2022-08-01T09:42:22;24.50;99.90
15409;DHT22;7803;48.130;13.788;2022-08-01T09:45:33;24.50;99.90
15409;DHT22;7803;48.130;13.788;2022-08-01T09:48:35;24.50;99.90
15409;DHT22;7803;48.130;13.788;2022-08-01T09:51:39;24.50;99.90
15409;DHT22;7803;48.130;13.788;2022-08-01T09:54:51;24.50;99.90
15409;DHT22;7803;48.130;13.788;2022-08-01T09:57:55;24.50;99.90
15409;DHT22;7803;48.130;13.788;2022-08-01T10:00:59;24.50;99.90
15409;DHT22;7803;48.130;13.788;2022-08-01T10:04:09;24.50;99.90
15409;DHT22;7803;48.130;13.788;2022-08-01T10:07:12;24.50;99.90
15409;DHT22;7803;48.130;13.788;2022-08-01T10:10:17;24.50;99.90
15409;DHT22;7803;48.130;13.788;2022-08-01T10:13:19;24.50;99.90
15409;DHT22;7803;48.130;13.788;2022-08-01T10:16:21;24.50;99.90
15409;DHT22;7803;48.130;13.788;2022-08-01T10:19:26;24.50;99.90
15409;DHT22;7803;48.130;13.788;2022-08-01T10:22:29;24.60;99.90
15409;DHT22;7803;48.130;13.788;2022-08-01T10:25:38;24.70;99.90
15409;DHT22;7803;48.130;13.788;2022-08-01T10:28:44;24.70;99.90
15409;DHT22;7803;48.130;13.788;2022-08-01T10:31:49;24.80;99.90
15409;DHT22;7803;48.130;13.788;2022-08-01T10:34:52;24.80;99.90
15409;DHT22;7803;48.130;13.788;2022-08-01T10:37:56;24.80;99.90
15409;DHT22;7803;48.130;13.788;2022-08-01T10:41:02;24.80;99.90
15409;DHT22;7803;48.130;13.788;2022-08-01T10:44:06;24.80;99.90
15409;DHT22;7803;48.130;13.788;2022-08-01T10:47:11;24.80;99.90
15409;DHT22;7803;48.130;13.788;2022-08-01T10:50:17;24.80;99.90
15409;DHT22;7803;48.130;13.788;2022-08-01T10:53:21;24.80;99.90
15409;DHT22;7803;48.130;13.788;2022-08-01T10:56:38;24.80;99.90
15409;DHT22;7803;48.130;13.788;2022-08-01T10:59:51;24.80;99.90
15409;DHT22;7803;48.130;13.788;2022-08-01T11:03:01;24.80;99.90
15409;DHT22;7803;48.130;13.788;2022-08-01T11:06:04;24.80;99.90
15409;DHT22;7803;48.130;13.788;2022-08-01T11:09:29;24.80;99.90
15409;DHT22;7803;48.130;13.788;2022-08-01T11:12:40;24.80;99.70
15409;DHT22;7803;48.130;13.788;2022-08-01T11:15:42;24.80;99.50
15409;DHT22;7803;48.130;13.788;2022-08-01T11:18:50;24.80;99.20
15409;DHT22;7803;48.130;13.788;2022-08-01T11:21:59;24.80;98.70
15409;DHT22;7803;48.130;13.788;2022-08-01T11:25:03;24.80;98.10
15409;DHT22;7803;48.130;13.788;2022-08-01T11:28:20;24.80;97.90
15409;DHT22;7803;48.130;13.788;2022-08-01T11:31:28;24.70;97.70
15409;DHT22;7803;48.130;13.788;2022-08-01T11:34:52;24.80;97.80
15409;DHT22;7803;48.130;13.788;2022-08-01T11:37:54;24.80;97.50
15409;DHT22;7803;48.130;13.788;2022-08-01T11:41:10;24.80;98.10
15409;DHT22;7803;48.130;13.788;2022-08-01T11:44:16;24.80;98.20
15409;DHT22;7803;48.130;13.788;2022-08-01T11:47:22;24.80;97.80
15409;DHT22;7803;48.130;13.788;2022-08-01T11:50:45;24.80;97.80
15409;DHT22;7803;48.130;13.788;2022-08-01T11:53:49;24.80;97.70
15409;DHT22;7803;48.130;13.788;2022-08-01T11:56:55;24.80;97.00
15409;DHT22;7803;48.130;13.788;2022-08-01T11:59:58;24.80;96.40
15409;DHT22;7803;48.130;13.788;2022-08-01T12:03:06;24.80;96.50
15409;DHT22;7803;48.130;13.788;2022-08-01T12:06:09;24.70;96.30
15409;DHT22;7803;48.130;13.788;2022-08-01T12:09:18;24.80;96.40
15409;DHT22;7803;48.130;13.788;2022-08-01T12:12:21;24.80;96.60
15409;DHT22;7803;48.130;13.788;2022-08-01T12:15:24;24.80;95.20
15409;DHT22;7803;48.130;13.788;2022-08-01T12:18:26;24.80;95.40
15409;DHT22;7803;48.130;13.788;2022-08-01T12:21:29;24.80;95.40
15409;DHT22;7803;48.130;13.788;2022-08-01T12:24:31;24.80;95.20
15409;DHT22;7803;48.130;13.788;2022-08-01T12:27:34;24.80;94.80
15409;DHT22;7803;48.130;13.788;2022-08-01T12:30:37;24.80;94.40
15409;DHT22;7803;48.130;13.788;2022-08-01T12:33:39;24.90;94.60
15409;DHT22;7803;48.130;13.788;2022-08-01T12:36:42;24.90;93.80
15409;DHT22;7803;48.130;13.788;2022-08-01T12:39:45;24.90;93.60
15409;DHT22;7803;48.130;13.788;2022-08-01T12:42:49;24.90;93.60
15409;DHT22;7803;48.130;13.788;2022-08-01T12:45:53;24.80;92.80
15409;DHT22;7803;48.130;13.788;2022-08-01T12:48:55;24.80;92.80
15409;DHT22;7803;48.130;13.788;2022-08-01T12:51:59;24.90;92.40
15409;DHT22;7803;48.130;13.788;2022-08-01T12:55:04;24.90;92.60
15409;DHT22;7803;48.130;13.788;2022-08-01T12:58:08;24.90;92.20
15409;DHT22;7803;48.130;13.788;2022-08-01T13:01:11;24.90;91.90
15409;DHT22;7803;48.130;13.788;2022-08-01T13:04:13;24.90;91.70
15409;DHT22;7803;48.130;13.788;2022-08-01T13:07:16;24.90;91.70
15409;DHT22;7803;48.130;13.788;2022-08-01T13:10:28;24.90;92.00
15409;DHT22;7803;48.130;13.788;2022-08-01T13:13:38;24.90;91.70
15409;DHT22;7803;48.130;13.788;2022-08-01T13:16:47;24.90;91.60
15409;DHT22;7803;48.130;13.788;2022-08-01T13:19:49;24.90;91.40
15409;DHT22;7803;48.130;13.788;2022-08-01T13:22:54;24.90;91.20
15409;DHT22;7803;48.130;13.788;2022-08-01T13:25:56;24.90;91.20
15409;DHT22;7803;48.130;13.788;2022-08-01T13:29:03;25.00;91.30
15409;DHT22;7803;48.130;13.788;2022-08-01T13:32:13;24.90;90.90
15409;DHT22;7803;48.130;13.788;2022-08-01T13:35:20;25.00;90.70
15409;DHT22;7803;48.130;13.788;2022-08-01T13:38:23;24.90;90.80
15409;DHT22;7803;48.130;13.788;2022-08-01T13:41:39;25.00;91.00
15409;DHT22;7803;48.130;13.788;2022-08-01T13:44:41;25.00;91.60
15409;DHT22;7803;48.130;13.788;2022-08-01T13:47:45;25.00;91.80
15409;DHT22;7803;48.130;13.788;2022-08-01T13:50:47;25.00;93.10
15409;DHT22;7803;48.130;13.788;2022-08-01T13:53:51;25.00;93.30
15409;DHT22;7803;48.130;13.788;2022-08-01T13:56:53;25.00;93.60
15409;DHT22;7803;48.130;13.788;2022-08-01T13:59:55;25.00;94.20
15409;DHT22;7803;48.130;13.788;2022-08-01T14:03:00;25.00;94.60
15409;DHT22;7803;48.130;13.788;2022-08-01T14:06:02;25.00;94.70
15409;DHT22;7803;48.130;13.788;2022-08-01T14:09:06;25.00;94.70
15409;DHT22;7803;48.130;13.788;2022-08-01T14:12:08;25.10;95.60
15409;DHT22;7803;48.130;13.788;2022-08-01T14:15:10;25.10;96.10
15409;DHT22;7803;48.130;13.788;2022-08-01T14:18:12;25.10;96.30
15409;DHT22;7803;48.130;13.788;2022-08-01T14:21:14;25.10;96.90
15409;DHT22;7803;48.130;13.788;2022-08-01T14:24:17;25.10;96.90
15409;DHT22;7803;48.130;13.788;2022-08-01T14:27:19;25.10;96.40
15409;DHT22;7803;48.130;13.788;2022-08-01T14:30:21;25.10;96.60
15409;DHT22;7803;48.130;13.788;2022-08-01T14:33:24;25.10;96.70
15409;DHT22;7803;48.130;13.788;2022-08-01T14:36:26;25.00;96.00
15409;DHT22;7803;48.130;13.788;2022-08-01T14:39:29;25.10;96.10
15409;DHT22;7803;48.130;13.788;2022-08-01T14:42:31;25.00;96.60
15409;DHT22;7803;48.130;13.788;2022-08-01T14:45:33;25.00;97.30
15409;DHT22;7803;48.130;13.788;2022-08-01T14:48:35;25.10;97.30
15409;DHT22;7803;48.130;13.788;2022-08-01T14:51:37;25.10;97.30
15409;DHT22;7803;48.130;13.788;2022-08-01T14:54:41;25.10;97.10
15409;DHT22;7803;48.130;13.788;2022-08-01T14:57:43;25.20;97.40
15409;DHT22;7803;48.130;13.788;2022-08-01T15:00:45;25.10;96.90
15409;DHT22;7803;48.130;13.788;2022-08-01T15:03:46;25.10;97.20
15409;DHT22;7803;48.130;13.788;2022-08-01T15:06:50;25.10;97.80
15409;DHT22;7803;48.130;13.788;2022-08-01T15:09:54;25.00;98.80
15409;DHT22;7803;48.130;13.788;2022-08-01T15:12:56;25.10;99.90
15409;DHT22;7803;48.130;13.788;2022-08-01T15:16:00;25.10;99.90
15409;DHT22;7803;48.130;13.788;2022-08-01T15:19:02;25.10;99.90
15409;DHT22;7803;48.130;13.788;2022-08-01T15:22:04;25.10;99.90
15409;DHT22;7803;48.130;13.788;2022-08-01T15:25:08;25.00;99.90
15409;DHT22;7803;48.130;13.788;2022-08-01T15:28:10;25.00;99.90
15409;DHT22;7803;48.130;13.788;2022-08-01T15:31:12;25.00;99.90
15409;DHT22;7803;48.130;13.788;2022-08-01T15:34:14;25.00;99.90
15409;DHT22;7803;48.130;13.788;2022-08-01T15:37:16;25.00;99.90
15409;DHT22;7803;48.130;13.788;2022-08-01T15:40:20;25.00;99.90
15409;DHT22;7803;48.130;13.788;2022-08-01T15:43:22;25.00;99.90
15409;DHT22;7803;48.130;13.788;2022-08-01T15:46:24;25.00;99.90
15409;DHT22;7803;48.130;13.788;2022-08-01T15:49:26;24.90;99.90
15409;DHT22;7803;48.130;13.788;2022-08-01T15:52:28;24.90;99.90
15409;DHT22;7803;48.130;13.788;2022-08-01T15:55:34;24.90;99.90
15409;DHT22;7803;48.130;13.788;2022-08-01T15:58:36;24.90;99.90
15409;DHT22;7803;48.130;13.788;2022-08-01T16:01:38;24.90;99.90
15409;DHT22;7803;48.130;13.788;2022-08-01T16:04:41;24.90;99.90
15409;DHT22;7803;48.130;13.788;2022-08-01T16:07:43;24.90;99.90
15409;DHT22;7803;48.130;13.788;2022-08-01T16:10:46;24.90;99.90
15409;DHT22;7803;48.130;13.788;2022-08-01T16:13:48;24.90;99.90
15409;DHT22;7803;48.130;13.788;2022-08-01T16:16:50;24.90;99.90
15409;DHT22;7803;48.130;13.788;2022-08-01T16:19:52;24.90;99.90
15409;DHT22;7803;48.130;13.788;2022-08-01T16:22:54;24.90;99.90
15409;DHT22;7803;48.130;13.788;2022-08-01T16:25:58;24.90;99.90
15409;DHT22;7803;48.130;13.788;2022-08-01T16:29:00;24.90;99.90
15409;DHT22;7803;48.130;13.788;2022-08-01T16:32:02;25.00;99.90
15409;DHT22;7803;48.130;13.788;2022-08-01T16:35:04;25.00;99.90
15409;DHT22;7803;48.130;13.788;2022-08-01T16:38:06;25.00;99.90
15409;DHT22;7803;48.130;13.788;2022-08-01T16:41:10;25.00;99.90
15409;DHT22;7803;48.130;13.788;2022-08-01T16:44:12;24.90;99.90
15409;DHT22;7803;48.130;13.788;2022-08-01T16:47:15;24.90;99.90
15409;DHT22;7803;48.130;13.788;2022-08-01T16:50:17;24.90;99.90
15409;DHT22;7803;48.130;13.788;2022-08-01T16:53:20;25.00;99.90
15409;DHT22;7803;48.130;13.788;2022-08-01T16:56:24;25.00;99.90
15409;DHT22;7803;48.130;13.788;2022-08-01T16:59:28;24.90;99.90
15409;DHT22;7803;48.130;13.788;2022-08-01T17:02:31;25.00;99.90
15409;DHT22;7803;48.130;13.788;2022-08-01T17:05:33;25.00;99.90
15409;DHT22;7803;48.130;13.788;2022-08-01T17:08:35;25.00;99.90
15409;DHT22;7803;48.130;13.788;2022-08-01T17:11:38;25.00;99.90
15409;DHT22;7803;48.130;13.788;2022-08-01T17:14:40;25.00;99.90
15409;DHT22;7803;48.130;13.788;2022-08-01T17:17:42;25.00;99.90
15409;DHT22;7803;48.130;13.788;2022-08-01T17:20:44;25.00;99.90
15409;DHT22;7803;48.130;13.788;2022-08-01T17:23:49;25.00;99.90
15409;DHT22;7803;48.130;13.788;2022-08-01T17:26:52;24.90;99.90
15409;DHT22;7803;48.130;13.788;2022-08-01T17:29:54;25.00;99.90
15409;DHT22;7803;48.130;13.788;2022-08-01T17:32:56;24.90;99.90
15409;DHT22;7803;48.130;13.788;2022-08-01T17:35:58;25.00;99.90
15409;DHT22;7803;48.130;13.788;2022-08-01T17:39:00;25.00;99.90
15409;DHT22;7803;48.130;13.788;2022-08-01T17:42:04;24.90;99.90
15409;DHT22;7803;48.130;13.788;2022-08-01T17:45:08;25.00;99.90
15409;DHT22;7803;48.130;13.788;2022-08-01T17:48:10;25.00;99.90
15409;DHT22;7803;48.130;13.788;2022-08-01T17:51:15;25.00;99.90
15409;DHT22;7803;48.130;13.788;2022-08-01T17:54:18;25.00;99.90
15409;DHT22;7803;48.130;13.788;2022-08-01T17:57:21;25.00;99.90
15409;DHT22;7803;48.130;13.788;2022-08-01T18:00:23;25.00;99.90
15409;DHT22;7803;48.130;13.788;2022-08-01T18:03:25;24.90;99.90
15409;DHT22;7803;48.130;13.788;2022-08-01T18:06:27;24.90;99.90
15409;DHT22;7803;48.130;13.788;2022-08-01T18:09:29;24.90;99.90
15409;DHT22;7803;48.130;13.788;2022-08-01T18:12:34;24.90;99.90
15409;DHT22;7803;48.130;13.788;2022-08-01T18:15:36;25.00;99.90
15409;DHT22;7803;48.130;13.788;2022-08-01T18:18:39;24.90;99.90
15409;DHT22;7803;48.130;13.788;2022-08-01T18:21:41;25.00;99.90
15409;DHT22;7803;48.130;13.788;2022-08-01T18:24:43;25.00;99.90
15409;DHT22;7803;48.130;13.788;2022-08-01T18:27:46;25.00;99.90
15409;DHT22;7803;48.130;13.788;2022-08-01T18:30:48;24.90;99.90
15409;DHT22;7803;48.130;13.788;2022-08-01T18:33:50;25.00;99.90
15409;DHT22;7803;48.130;13.788;2022-08-01T18:36:53;24.90;99.90
15409;DHT22;7803;48.130;13.788;2022-08-01T18:39:55;24.90;99.90
15409;DHT22;7803;48.130;13.788;2022-08-01T18:42:59;24.90;99.90
15409;DHT22;7803;48.130;13.788;2022-08-01T18:46:01;25.00;99.90
15409;DHT22;7803;48.130;13.788;2022-08-01T18:49:05;24.90;99.90
15409;DHT22;7803;48.130;13.788;2022-08-01T18:52:08;25.00;99.90
15409;DHT22;7803;48.130;13.788;2022-08-01T18:55:10;25.00;99.90
15409;DHT22;7803;48.130;13.788;2022-08-01T18:58:13;24.90;99.90
15409;DHT22;7803;48.130;13.788;2022-08-01T19:01:16;25.00;99.90
15409;DHT22;7803;48.130;13.788;2022-08-01T19:04:18;25.00;99.90
15409;DHT22;7803;48.130;13.788;2022-08-01T19:07:20;24.90;99.90
15409;DHT22;7803;48.130;13.788;2022-08-01T19:10:22;24.90;99.90
15409;DHT22;7803;48.130;13.788;2022-08-01T19:13:25;24.90;99.90
15409;DHT22;7803;48.130;13.788;2022-08-01T19:16:30;24.90;99.90
15409;DHT22;7803;48.130;13.788;2022-08-01T19:19:32;24.90;99.90
15409;DHT22;7803;48.130;13.788;2022-08-01T19:22:35;24.90;99.90